Terminal Aerodrome Forecast
Issued by NWS

Home | Current Version | Previous Version | Text Only | Print | Product List | Glossary On
Versions: 1 2 3 4 5 6 7 8 9 10 11 12 13 14 15 16 17 18 19 20 21 22 23 24 25 26 27 28 29 30 31
000
FTUS41 KBOX 260537
TAFHYA
TAF
KHYA 260537Z 2606/2706 35007KT P6SM SCT140
     FM260900 03005KT P6SM BKN110
     FM261300 05008KT P6SM OVC025
     FM261800 06015G26KT P6SM OVC015
     FM262100 05015G28KT 2SM -SN OVC015
     FM270000 05020G37KT 1SM -SN OVC010=

USA.gov is the U.S. government's official web portal to all federal, state and local government web resources and services.